Time;durP1;ratioP1;P1;durP2;ratioP2;P2;SDS_P1;SDS_P2;PMS_P1;PMS_P2;Temp;Humidity;BMP_temperature;BMP_pressure;BME280_temperature;BME280_humidity;BME280_pressure;Samples;Min_cycle;Max_cycle;Signal;HPM_P1;HPM_P2
2022/04/25 00:02:24;;;;;;;3.72;2.65;;;15.60;56.90;;;;;;5089751;28;20376;-74
2022/04/25 00:04:50;;;;;;;4.32;2.50;;;15.60;56.90;;;;;;5078071;28;20059;-73
2022/04/25 00:07:16;;;;;;;4.50;2.50;;;15.60;56.90;;;;;;5068436;28;20034;-73
2022/04/25 00:09:43;;;;;;;3.42;2.58;;;15.60;56.90;;;;;;5078746;28;20032;-74
2022/04/25 00:12:09;;;;;;;4.20;2.63;;;15.60;57.60;;;;;;5074339;28;20032;-73
2022/04/25 00:14:35;;;;;;;3.97;2.65;;;15.50;56.90;;;;;;5096368;28;20032;-74
2022/04/25 00:17:00;;;;;;;3.60;2.42;;;15.50;57.00;;;;;;5079814;28;20081;-73
2022/04/25 00:19:27;;;;;;;3.78;2.65;;;15.40;57.00;;;;;;5081512;28;20054;-73
2022/04/25 00:21:52;;;;;;;2.80;2.30;;;15.40;57.10;;;;;;5081195;28;20468;-73
2022/04/25 00:24:19;;;;;;;2.95;2.50;;;15.40;57.10;;;;;;5066997;28;20039;-74
2022/04/25 00:26:45;;;;;;;3.13;2.45;;;15.30;57.10;;;;;;5095666;28;20108;-73
2022/04/25 00:29:12;;;;;;;3.58;2.60;;;15.30;57.10;;;;;;5090290;28;20107;-75
2022/04/25 00:31:38;;;;;;;3.70;2.70;;;15.20;57.00;;;;;;5072704;28;20067;-75
2022/04/25 00:34:04;;;;;;;3.47;2.45;;;15.20;57.10;;;;;;5096627;28;20031;-74
2022/04/25 00:36:30;;;;;;;3.75;2.47;;;15.20;57.10;;;;;;5063845;28;20159;-73
2022/04/25 00:38:56;;;;;;;3.13;2.45;;;15.20;57.20;;;;;;5093645;28;20039;-72
2022/04/25 00:41:21;;;;;;;4.10;2.75;;;15.10;57.20;;;;;;5075801;28;20028;-73
2022/04/25 00:43:47;;;;;;;3.97;2.60;;;15.10;57.20;;;;;;5070272;28;20111;-75
2022/04/25 00:46:21;;;;;;;4.22;2.58;;;15.00;57.20;;;;;;5085797;28;20472;-73
2022/04/25 00:48:48;;;;;;;3.47;2.57;;;15.00;57.30;;;;;;5080592;28;20020;-73
2022/04/25 00:51:15;;;;;;;3.33;2.38;;;15.00;57.20;;;;;;5089353;28;20024;-73
2022/04/25 00:53:41;;;;;;;3.95;2.63;;;14.90;57.20;;;;;;5080862;28;20036;-72
2022/04/25 00:56:08;;;;;;;3.58;2.65;;;14.90;57.30;;;;;;5097127;28;20019;-74
2022/04/25 00:58:35;;;;;;;3.88;2.90;;;14.80;57.30;;;;;;5077519;28;20028;-74
2022/04/25 01:01:02;;;;;;;3.55;2.80;;;14.90;57.40;;;;;;5076408;28;20020;-74
2022/04/25 01:03:28;;;;;;;4.45;2.80;;;14.80;57.40;;;;;;5092193;28;20027;-74
2022/04/25 01:05:54;;;;;;;4.13;3.00;;;14.80;57.50;;;;;;5075720;28;20127;-73
2022/04/25 01:08:20;;;;;;;4.45;2.85;;;14.80;57.50;;;;;;5063547;28;20465;-73
2022/04/25 01:10:47;;;;;;;3.53;2.72;;;14.70;57.40;;;;;;5068457;28;20020;-73
2022/04/25 01:13:13;;;;;;;3.40;2.78;;;14.70;57.50;;;;;;5095279;28;20042;-73
2022/04/25 01:15:39;;;;;;;4.30;2.67;;;14.70;57.60;;;;;;5092507;28;20035;-75
2022/04/25 01:18:06;;;;;;;4.30;2.78;;;14.60;57.50;;;;;;5083986;28;20106;-73
2022/04/25 01:20:32;;;;;;;4.10;3.13;;;14.60;57.60;;;;;;5087519;28;20086;-73
2022/04/25 01:27:15;;;;;;;4.93;3.13;;;14.60;57.60;;;;;;5090235;28;20075;-73
2022/04/25 01:28:37;;;;;;;4.32;2.58;;;14.50;57.60;;;;;;5090740;28;20051;-73
2022/04/25 01:31:03;;;;;;;3.72;2.60;;;14.50;57.70;;;;;;5090168;28;20031;-73
2022/04/25 01:33:29;;;;;;;3.55;2.63;;;14.40;57.70;;;;;;5090797;28;20385;-73
2022/04/25 01:35:55;;;;;;;4.45;3.00;;;14.40;57.80;;;;;;5041406;28;20040;-73
2022/04/25 01:38:21;;;;;;;3.85;2.60;;;14.40;57.80;;;;;;5099189;28;20039;-74
2022/04/25 01:40:47;;;;;;;4.97;3.05;;;14.30;57.80;;;;;;5081372;28;20380;-73
2022/04/25 01:43:13;;;;;;;5.28;3.10;;;14.30;57.80;;;;;;5091429;28;20380;-74
2022/04/25 01:45:42;;;;;;;5.28;2.95;;;14.30;57.90;;;;;;5093718;28;20012;-74
2022/04/25 01:48:08;;;;;;;4.45;3.05;;;14.20;57.90;;;;;;5066904;28;20090;-74
2022/04/25 01:50:33;;;;;;;4.15;2.80;;;14.20;57.90;;;;;;5096830;28;20020;-74
2022/04/25 01:52:59;;;;;;;4.60;3.10;;;14.20;58.00;;;;;;5078348;28;20040;-74
2022/04/25 01:55:25;;;;;;;4.85;2.92;;;14.20;58.00;;;;;;5091773;28;20025;-73
2022/04/25 01:57:51;;;;;;;4.13;2.95;;;14.10;58.00;;;;;;5094781;28;20487;-73
2022/04/25 02:00:16;;;;;;;4.68;3.17;;;14.10;58.00;;;;;;5096696;28;20028;-73
2022/04/25 02:02:42;;;;;;;3.40;2.85;;;14.10;58.10;;;;;;5089996;28;20115;-73
2022/04/25 02:05:08;;;;;;;3.80;2.95;;;14.10;58.10;;;;;;5053976;28;20111;-74
2022/04/25 02:07:34;;;;;;;4.03;2.92;;;14.00;58.10;;;;;;5086170;28;20035;-73
2022/04/25 02:10:00;;;;;;;4.13;2.75;;;14.00;58.10;;;;;;5064778;28;20392;-74
2022/04/25 02:12:26;;;;;;;3.95;3.00;;;14.00;58.20;;;;;;5092689;28;20028;-73
2022/04/25 02:14:51;;;;;;;3.75;2.80;;;14.00;58.20;;;;;;5084404;28;20106;-74
2022/04/25 02:17:18;;;;;;;5.05;3.20;;;13.90;58.20;;;;;;5081366;28;20111;-73
2022/04/25 02:19:46;;;;;;;4.13;3.03;;;13.90;58.20;;;;;;5070963;28;20039;-74
2022/04/25 02:22:13;;;;;;;4.15;2.85;;;13.90;58.30;;;;;;5093590;28;20675;-74
2022/04/25 02:24:40;;;;;;;4.75;3.20;;;13.90;58.30;;;;;;5089571;28;20039;-74
2022/04/25 02:27:07;;;;;;;4.63;3.10;;;13.90;58.40;;;;;;5095813;28;20024;-74
2022/04/25 02:29:34;;;;;;;5.18;3.30;;;13.80;58.40;;;;;;5092267;28;20028;-74
2022/04/25 02:32:01;;;;;;;4.82;3.00;;;13.80;58.40;;;;;;5100347;28;20533;-73
2022/04/25 02:34:31;;;;;;;4.00;3.00;;;13.80;58.40;;;;;;5090356;28;20058;-73
2022/04/25 02:36:57;;;;;;;4.93;2.90;;;13.80;58.50;;;;;;5088922;28;20036;-73
2022/04/25 02:39:24;;;;;;;4.63;3.20;;;13.70;58.40;;;;;;5073029;28;20123;-73
2022/04/25 02:41:51;;;;;;;4.88;3.25;;;13.70;58.50;;;;;;5090971;28;20035;-73
2022/04/25 02:44:17;;;;;;;3.72;2.75;;;13.70;58.50;;;;;;5088259;28;20663;-73
2022/04/25 02:46:43;;;;;;;3.72;3.08;;;13.60;58.50;;;;;;5088380;28;20032;-75
2022/04/25 02:49:09;;;;;;;4.30;2.97;;;13.60;58.60;;;;;;5093090;28;20035;-73
2022/04/25 02:51:34;;;;;;;5.13;3.42;;;13.60;58.60;;;;;;5087851;28;20035;-74
2022/04/25 02:54:00;;;;;;;3.92;2.85;;;13.60;58.60;;;;;;5049496;28;20039;-73
2022/04/25 02:56:26;;;;;;;3.92;2.97;;;13.50;58.60;;;;;;5095229;28;20476;-74
2022/04/25 02:58:51;;;;;;;4.35;3.17;;;13.50;58.70;;;;;;5082615;28;20508;-73
2022/04/25 03:01:17;;;;;;;4.43;3.10;;;13.50;58.70;;;;;;5090717;28;20047;-74
2022/04/25 03:03:43;;;;;;;5.20;3.15;;;13.50;58.70;;;;;;5073107;28;20139;-73
2022/04/25 03:06:10;;;;;;;4.88;3.35;;;13.40;58.70;;;;;;5088622;28;20074;-73
2022/04/25 03:08:37;;;;;;;4.88;3.03;;;13.40;58.70;;;;;;5092348;28;20032;-73
2022/04/25 03:11:05;;;;;;;5.03;2.90;;;13.40;58.70;;;;;;5091166;28;20030;-73
2022/04/25 03:13:34;;;;;;;4.05;3.00;;;13.40;58.80;;;;;;5072326;28;20369;-73
2022/04/25 03:16:01;;;;;;;4.32;3.15;;;13.30;58.80;;;;;;5094133;27;20064;-73
2022/04/25 03:18:29;;;;;;;4.22;2.90;;;13.40;58.90;;;;;;5082081;28;20016;-75
2022/04/25 03:20:55;;;;;;;4.22;3.00;;;13.30;58.90;;;;;;5080070;28;20492;-74
2022/04/25 03:23:22;;;;;;;4.35;3.15;;;13.30;58.90;;;;;;5076653;28;20024;-73
2022/04/25 03:25:50;;;;;;;4.28;3.22;;;13.30;58.90;;;;;;5085267;28;20023;-73
2022/04/25 03:28:17;;;;;;;4.50;3.28;;;13.20;58.90;;;;;;5059669;28;20476;-74
2022/04/25 03:30:43;;;;;;;4.43;3.08;;;13.20;58.90;;;;;;5096228;28;20477;-73
2022/04/25 03:33:11;;;;;;;5.00;3.67;;;13.20;59.00;;;;;;5098492;28;20069;-75
2022/04/25 03:35:38;;;;;;;5.65;3.30;;;13.10;58.90;;;;;;5071817;28;20436;-73
2022/04/25 03:38:06;;;;;;;5.00;3.58;;;13.10;59.00;;;;;;5079630;28;20016;-74
2022/04/25 03:40:33;;;;;;;4.63;3.30;;;13.10;59.00;;;;;;5088166;28;20058;-74
2022/04/25 03:42:58;;;;;;;4.55;3.28;;;13.10;59.10;;;;;;5071199;28;20032;-74
2022/04/25 03:45:24;;;;;;;5.07;3.60;;;13.10;59.10;;;;;;5074540;28;20097;-75
2022/04/25 03:47:50;;;;;;;4.45;3.35;;;13.00;59.10;;;;;;5065043;28;20027;-74
2022/04/25 03:50:16;;;;;;;4.78;3.33;;;13.00;59.10;;;;;;5094111;28;20119;-73
2022/04/25 03:52:44;;;;;;;5.03;3.80;;;13.00;59.20;;;;;;5080986;28;20093;-73
2022/04/25 03:57:58;;;;;;;4.97;3.50;;;13.00;59.30;;;;;;5087011;28;20024;-73
2022/04/25 04:00:24;;;;;;;5.05;3.53;;;12.90;59.30;;;;;;5094264;28;20023;-73
2022/04/25 04:02:50;;;;;;;5.47;3.78;;;12.90;59.30;;;;;;5076328;28;20476;-75
2022/04/25 04:05:16;;;;;;;4.50;3.28;;;12.90;59.40;;;;;;5088428;28;20027;-74
2022/04/25 04:07:42;;;;;;;4.60;3.40;;;12.90;59.40;;;;;;5096212;28;20032;-74
2022/04/25 04:10:08;;;;;;;5.28;4.00;;;12.90;59.40;;;;;;5087383;28;20020;-74
2022/04/25 04:12:34;;;;;;;5.40;3.90;;;12.90;59.50;;;;;;5088545;28;20036;-73
2022/04/25 04:15:07;;;;;;;5.65;3.60;;;12.80;59.50;;;;;;5080189;28;20356;-73
2022/04/25 04:17:35;;;;;;;4.47;3.45;;;12.80;59.50;;;;;;5093056;28;20035;-73
2022/04/25 04:20:02;;;;;;;5.78;4.10;;;12.80;59.60;;;;;;5080228;28;20032;-73
2022/04/25 04:22:32;;;;;;;4.65;3.47;;;12.80;59.60;;;;;;5097076;28;20051;-73
2022/04/25 04:25:07;;;;;;;5.32;3.78;;;12.80;59.60;;;;;;5072792;28;20127;-73
2022/04/25 04:27:33;;;;;;;5.40;3.67;;;12.80;59.70;;;;;;5090176;28;20032;-76
2022/04/25 04:30:00;;;;;;;5.90;4.32;;;12.80;59.70;;;;;;5058514;28;20101;-75
2022/04/25 04:32:29;;;;;;;5.28;3.97;;;12.80;59.80;;;;;;5068768;28;20033;-74
2022/04/25 04:34:56;;;;;;;5.82;3.90;;;12.70;59.80;;;;;;5076048;28;20475;-73
2022/04/25 04:37:23;;;;;;;5.50;3.80;;;12.80;59.90;;;;;;5094600;28;20121;-74
2022/04/25 04:39:49;;;;;;;5.47;3.80;;;12.70;59.80;;;;;;5067037;28;20115;-74
2022/04/25 04:42:15;;;;;;;5.20;3.80;;;12.70;59.90;;;;;;5077327;28;20128;-75
2022/04/25 04:44:42;;;;;;;5.75;4.30;;;12.70;59.90;;;;;;5082331;28;20033;-75
2022/04/25 04:47:08;;;;;;;4.95;3.72;;;12.70;59.90;;;;;;5091165;28;20028;-74
2022/04/25 04:49:34;;;;;;;6.78;4.18;;;12.70;60.00;;;;;;5077321;28;20425;-74
2022/04/25 04:52:00;;;;;;;5.28;3.95;;;12.70;60.00;;;;;;5073614;28;20047;-76
2022/04/25 04:54:26;;;;;;;7.07;4.47;;;12.70;60.00;;;;;;5068765;28;20021;-76
2022/04/25 04:56:52;;;;;;;5.18;3.75;;;12.70;60.10;;;;;;5095452;28;20047;-76
2022/04/25 04:59:17;;;;;;;5.40;4.00;;;12.70;60.10;;;;;;5071738;28;20024;-76
2022/04/25 05:01:44;;;;;;;6.10;4.63;;;12.70;60.10;;;;;;5085904;28;20137;-76
2022/04/25 05:04:10;;;;;;;5.65;4.50;;;12.70;60.10;;;;;;5085388;28;20089;-76
2022/04/25 05:06:35;;;;;;;6.30;4.80;;;12.70;60.20;;;;;;5082601;28;20423;-76
2022/04/25 05:09:01;;;;;;;6.20;4.55;;;12.70;60.20;;;;;;5097552;28;20693;-75
2022/04/25 05:11:29;;;;;;;5.75;4.40;;;12.70;60.20;;;;;;5076265;28;20074;-77
2022/04/25 05:13:55;;;;;;;6.07;4.55;;;12.70;60.90;;;;;;5092745;28;20032;-75
2022/04/25 05:16:21;;;;;;;6.35;4.80;;;12.60;60.20;;;;;;5091830;28;20108;-76
2022/04/25 05:18:46;;;;;;;6.13;4.50;;;12.70;60.30;;;;;;5083853;28;20028;-76
2022/04/25 05:21:13;;;;;;;6.50;4.95;;;12.60;60.30;;;;;;5099660;28;20048;-74
2022/04/25 05:23:41;;;;;;;6.30;4.70;;;12.60;60.30;;;;;;5091493;28;20070;-76
2022/04/25 05:26:07;;;;;;;5.80;4.40;;;12.70;60.40;;;;;;5093383;28;20054;-74
2022/04/25 05:28:33;;;;;;;6.32;4.43;;;12.60;60.40;;;;;;5087237;28;20047;-75
2022/04/25 05:30:59;;;;;;;6.00;4.70;;;12.60;60.40;;;;;;5087678;28;20476;-75
2022/04/25 05:33:24;;;;;;;5.85;4.53;;;12.70;60.40;;;;;;5086548;28;20040;-75
2022/04/25 05:35:51;;;;;;;5.85;4.80;;;12.60;60.40;;;;;;5095817;28;20099;-76
2022/04/25 05:38:18;;;;;;;6.15;4.78;;;12.60;60.40;;;;;;5075938;28;20051;-75
2022/04/25 05:40:44;;;;;;;5.90;4.60;;;12.60;60.50;;;;;;5094944;28;20034;-76
2022/04/25 05:43:11;;;;;;;5.97;4.63;;;12.60;60.50;;;;;;5079944;28;20043;-76
2022/04/25 05:45:37;;;;;;;5.70;4.50;;;12.70;60.60;;;;;;5081655;28;20034;-76
2022/04/25 05:51:58;;;;;;;7.55;5.03;;;12.60;60.60;;;;;;5091264;28;20028;-75
2022/04/25 05:53:37;;;;;;;6.35;4.97;;;12.60;60.60;;;;;;5102359;28;20024;-75
2022/04/25 05:56:03;;;;;;;6.55;4.32;;;12.60;60.60;;;;;;5096807;28;20472;-76
2022/04/25 05:58:29;;;;;;;6.25;4.68;;;12.60;60.70;;;;;;5101472;28;20016;-75
2022/04/25 06:00:55;;;;;;;6.80;4.78;;;12.60;60.70;;;;;;5084597;28;20031;-76
2022/04/25 06:03:21;;;;;;;5.93;4.82;;;12.60;60.70;;;;;;5109827;28;20047;-75
2022/04/25 06:05:46;;;;;;;5.88;4.72;;;12.60;60.70;;;;;;5093332;28;20099;-75
2022/04/25 06:08:12;;;;;;;6.70;5.07;;;12.60;60.70;;;;;;5086001;28;20036;-76
2022/04/25 06:10:39;;;;;;;7.10;4.65;;;12.60;61.40;;;;;;5080778;28;20048;-75
2022/04/25 06:13:08;;;;;;;6.50;5.35;;;12.60;60.80;;;;;;5098828;28;20036;-77
2022/04/25 06:15:33;;;;;;;6.75;5.32;;;12.60;60.80;;;;;;5076018;28;20082;-75
2022/04/25 06:17:59;;;;;;;6.85;5.18;;;12.60;60.80;;;;;;5075855;28;20067;-76
2022/04/25 06:20:26;;;;;;;6.40;5.18;;;12.60;60.90;;;;;;5096273;28;20504;-76
2022/04/25 06:22:53;;;;;;;6.28;4.93;;;12.60;60.80;;;;;;5103584;28;20065;-75
2022/04/25 06:25:19;;;;;;;6.90;4.95;;;12.60;60.90;;;;;;5078577;28;20032;-75
2022/04/25 06:27:45;;;;;;;7.35;5.35;;;12.60;60.90;;;;;;5104223;28;20550;-77
2022/04/25 06:30:11;;;;;;;7.28;5.65;;;12.60;60.90;;;;;;5097208;28;20047;-76
2022/04/25 06:32:37;;;;;;;8.32;5.65;;;12.60;60.90;;;;;;5093231;28;20059;-75
2022/04/25 06:35:03;;;;;;;6.60;5.38;;;12.60;60.90;;;;;;5066882;28;20532;-75
2022/04/25 06:37:29;;;;;;;7.63;5.65;;;12.60;61.00;;;;;;5100918;28;20035;-76
2022/04/25 06:39:55;;;;;;;7.35;5.80;;;12.60;61.00;;;;;;5086956;28;20380;-75
2022/04/25 06:42:21;;;;;;;7.35;5.88;;;12.70;61.10;;;;;;5092234;28;20028;-75
2022/04/25 06:44:47;;;;;;;7.03;5.63;;;12.70;61.10;;;;;;5061581;28;20036;-76
2022/04/25 06:47:13;;;;;;;6.93;5.57;;;12.70;61.10;;;;;;5085545;28;20077;-76
2022/04/25 06:49:38;;;;;;;8.40;6.20;;;12.70;61.20;;;;;;5091577;28;20016;-75
2022/04/25 06:52:06;;;;;;;7.10;5.43;;;12.70;61.20;;;;;;5086451;28;20126;-75
2022/04/25 06:54:33;;;;;;;7.82;6.30;;;12.70;61.30;;;;;;5079301;28;20098;-77
2022/04/25 06:56:59;;;;;;;7.50;5.93;;;12.70;61.20;;;;;;5093496;28;20481;-75
2022/04/25 06:59:25;;;;;;;7.50;6.10;;;12.70;61.20;;;;;;5083138;28;20108;-75
2022/04/25 07:01:51;;;;;;;7.80;6.13;;;12.70;61.30;;;;;;5078043;28;20431;-75
2022/04/25 07:04:18;;;;;;;8.00;6.10;;;12.70;61.30;;;;;;5091513;28;20024;-76
2022/04/25 07:06:44;;;;;;;7.45;5.97;;;12.70;61.30;;;;;;5099800;28;20032;-75
2022/04/25 07:09:13;;;;;;;7.50;6.07;;;12.70;61.30;;;;;;5084230;28;20073;-76
2022/04/25 07:11:43;;;;;;;7.68;5.57;;;12.80;61.40;;;;;;5080950;28;20017;-75
2022/04/25 07:14:12;;;;;;;5.97;5.03;;;12.70;61.40;;;;;;5091913;28;20047;-76
2022/04/25 07:16:39;;;;;;;7.30;5.97;;;12.70;61.40;;;;;;5102955;28;20085;-76
2022/04/25 07:19:06;;;;;;;7.00;5.40;;;12.80;61.40;;;;;;5090589;28;20056;-78
2022/04/25 07:29:48;;;;;;;7.20;5.32;;;12.80;61.40;;;;;;5091157;28;20035;-76
2022/04/25 07:32:15;;;;;;;7.20;5.38;;;12.80;61.50;;;;;;5098066;28;20024;-76
2022/04/25 07:34:42;;;;;;;8.52;5.75;;;12.80;61.60;;;;;;5090205;28;20028;-77
2022/04/25 07:37:08;;;;;;;7.63;5.60;;;12.80;61.60;;;;;;5087367;28;20054;-76
2022/04/25 07:39:34;;;;;;;7.55;5.28;;;12.80;61.60;;;;;;5083069;28;20579;-76
2022/04/25 07:42:00;;;;;;;6.97;5.57;;;12.80;61.70;;;;;;5085243;28;20028;-77
2022/04/25 07:44:26;;;;;;;6.50;5.38;;;12.80;61.70;;;;;;5069730;28;20032;-76
2022/04/25 07:46:53;;;;;;;6.90;5.47;;;12.80;61.70;;;;;;5075023;28;20481;-76
2022/04/25 07:49:19;;;;;;;7.47;6.07;;;12.80;61.70;;;;;;5094340;28;20020;-76
2022/04/25 07:51:44;;;;;;;6.85;5.45;;;12.80;61.70;;;;;;5073150;28;20032;-76
2022/04/25 07:54:11;;;;;;;6.65;5.15;;;12.80;61.80;;;;;;5091273;28;20051;-76
2022/04/25 07:56:37;;;;;;;5.95;4.82;;;12.80;61.80;;;;;;5073162;28;20016;-76
2022/04/25 07:59:05;;;;;;;7.28;5.72;;;12.80;61.80;;;;;;5083317;28;20392;-77
2022/04/25 08:01:33;;;;;;;7.47;5.60;;;12.80;61.80;;;;;;5071489;28;20032;-75
2022/04/25 08:04:00;;;;;;;6.07;4.93;;;12.80;61.90;;;;;;5089726;28;20040;-76
2022/04/25 08:06:26;;;;;;;7.13;5.30;;;12.80;61.90;;;;;;5082259;28;20024;-76
2022/04/25 08:08:53;;;;;;;7.13;5.32;;;12.80;61.80;;;;;;5073990;28;20389;-77
2022/04/25 08:11:19;;;;;;;6.78;5.03;;;12.80;61.90;;;;;;5081783;28;20499;-76
2022/04/25 08:19:15;;;;;;;7.63;5.38;;;12.80;61.90;;;;;;5088375;28;20036;-77
2022/04/25 08:21:42;;;;;;;6.88;4.95;;;12.80;61.80;;;;;;5064993;28;20041;-77
2022/04/25 08:24:09;;;;;;;6.82;5.38;;;12.80;61.90;;;;;;5080579;28;20039;-76
2022/04/25 08:26:35;;;;;;;7.72;5.57;;;12.80;62.00;;;;;;5074173;28;20043;-77
2022/04/25 08:29:01;;;;;;;7.85;5.70;;;12.80;62.00;;;;;;5073816;28;20035;-77
2022/04/25 08:31:27;;;;;;;7.47;6.00;;;12.80;62.00;;;;;;5093018;28;20035;-77
2022/04/25 08:33:54;;;;;;;6.88;5.13;;;12.80;62.00;;;;;;5092241;28;20028;-78
2022/04/25 08:36:19;;;;;;;7.28;5.72;;;12.80;62.00;;;;;;5088348;28;20118;-77
2022/04/25 08:38:49;;;;;;;7.35;5.30;;;12.80;62.00;;;;;;5097306;28;20032;-75
2022/04/25 08:41:21;;;;;;;7.43;5.93;;;12.80;62.10;;;;;;5072535;28;20504;-76
2022/04/25 08:43:52;;;;;;;7.53;6.10;;;12.80;62.10;;;;;;5088547;28;20031;-76
2022/04/25 08:46:21;;;;;;;7.00;5.53;;;12.80;62.10;;;;;;5087017;28;20031;-77
2022/04/25 08:48:48;;;;;;;6.90;5.18;;;12.90;62.10;;;;;;5090389;28;20024;-77
2022/04/25 08:51:15;;;;;;;8.05;6.05;;;12.80;62.10;;;;;;5101003;28;20504;-77
2022/04/25 08:53:43;;;;;;;7.20;5.82;;;12.90;62.10;;;;;;5084479;28;20045;-76
2022/04/25 08:56:09;;;;;;;7.50;6.13;;;12.90;62.10;;;;;;5093579;28;20028;-76
2022/04/25 08:58:39;;;;;;;8.25;6.50;;;12.90;62.10;;;;;;5090142;28;20048;-76
2022/04/25 09:01:06;;;;;;;7.55;5.93;;;12.90;62.20;;;;;;5099109;28;20032;-76
2022/04/25 09:03:31;;;;;;;7.18;5.82;;;12.90;62.10;;;;;;5098866;28;20111;-76
2022/04/25 09:05:58;;;;;;;8.10;5.85;;;12.90;62.10;;;;;;5091222;28;20183;-77
2022/04/25 09:08:24;;;;;;;8.13;5.97;;;12.90;62.10;;;;;;5077614;28;20106;-77
2022/04/25 09:10:50;;;;;;;7.38;5.65;;;12.90;62.10;;;;;;5090643;28;20049;-75
2022/04/25 09:13:16;;;;;;;8.52;5.90;;;12.90;62.20;;;;;;5086891;28;20070;-75
2022/04/25 09:15:42;;;;;;;9.35;6.30;;;12.90;62.20;;;;;;5098846;28;20060;-76
2022/04/25 09:18:09;;;;;;;7.72;5.80;;;12.90;62.20;;;;;;5077739;28;20028;-75
2022/04/25 09:20:35;;;;;;;8.05;6.20;;;12.90;62.30;;;;;;5092752;28;20024;-77
2022/04/25 09:23:01;;;;;;;7.47;6.07;;;12.90;62.30;;;;;;5074297;28;20044;-78
2022/04/25 09:25:27;;;;;;;7.82;6.55;;;12.90;62.30;;;;;;5099280;28;20032;-76
2022/04/25 09:28:14;;;;;;;8.73;6.50;;;12.90;62.30;;;;;;5101978;28;20358;-76
2022/04/25 09:30:55;;;;;;;8.07;6.35;;;12.90;62.40;;;;;;5083251;28;20039;-76
2022/04/25 09:33:22;;;;;;;7.18;6.00;;;12.90;62.40;;;;;;5113770;28;20043;-75
2022/04/25 09:35:53;;;;;;;7.82;5.97;;;12.90;62.40;;;;;;5091021;28;20028;-75
2022/04/25 09:38:28;;;;;;;8.32;6.15;;;13.00;62.50;;;;;;5096462;28;20062;-76
2022/04/25 09:40:55;;;;;;;;;;;12.90;62.50;;;;;;5093416;28;20034;-76
2022/04/25 09:43:27;;;;;;;6.05;5.07;;;12.90;62.30;;;;;;5098246;28;19953;-76
2022/04/25 09:46:08;;;;;;;8.38;6.03;;;12.90;62.30;;;;;;5082454;28;20062;-77
2022/04/25 09:48:34;;;;;;;7.90;5.95;;;13.00;62.50;;;;;;5076816;28;20138;-76
2022/04/25 09:51:01;;;;;;;8.20;6.13;;;13.00;62.50;;;;;;5076899;28;20079;-76
2022/04/25 09:53:42;;;;;;;7.80;6.13;;;13.00;62.60;;;;;;5099316;28;20469;-77
2022/04/25 09:56:18;;;;;;;8.35;6.55;;;13.00;62.70;;;;;;5102025;28;20031;-77
2022/04/25 09:58:56;;;;;;;8.13;6.20;;;13.00;62.60;;;;;;5102251;28;20046;-76
2022/04/25 10:01:22;;;;;;;6.63;5.63;;;13.00;62.60;;;;;;5059306;28;20027;-75
2022/04/25 10:03:48;;;;;;;8.05;6.05;;;13.10;62.60;;;;;;5081277;28;20024;-76
2022/04/25 10:06:14;;;;;;;9.27;6.68;;;13.00;62.60;;;;;;5111348;28;20034;-76
2022/04/25 10:08:41;;;;;;;7.45;6.00;;;13.10;62.60;;;;;;5108691;28;20296;-75
2022/04/25 10:11:07;;;;;;;9.07;7.03;;;13.00;62.60;;;;;;5072924;28;20101;-76
2022/04/25 10:13:34;;;;;;;8.38;6.72;;;13.10;62.60;;;;;;5088030;28;20023;-76
2022/04/25 10:16:01;;;;;;;7.93;6.45;;;13.10;62.60;;;;;;5102898;28;20072;-76
2022/04/25 10:18:32;;;;;;;9.02;6.68;;;13.10;62.60;;;;;;5084178;28;20106;-76
2022/04/25 10:21:00;;;;;;;9.63;6.97;;;13.10;62.60;;;;;;5104150;28;20028;-77
2022/04/25 10:23:27;;;;;;;8.50;6.55;;;13.10;62.60;;;;;;5090308;28;20047;-76
2022/04/25 10:25:55;;;;;;;8.63;6.70;;;13.20;62.60;;;;;;5083885;28;20118;-76
2022/04/25 10:28:24;;;;;;;7.57;6.28;;;13.10;62.60;;;;;;5091521;28;20046;-77
2022/04/25 10:30:50;;;;;;;8.82;6.63;;;13.20;62.60;;;;;;5088568;28;20051;-75
2022/04/25 10:33:17;;;;;;;9.38;7.07;;;13.20;62.60;;;;;;5101589;28;20027;-75
2022/04/25 10:35:46;;;;;;;8.70;6.78;;;13.20;62.60;;;;;;5101624;28;20028;-76
2022/04/25 10:38:47;;;;;;;8.82;6.75;;;13.20;62.60;;;;;;5083927;28;20024;-74
2022/04/25 10:44:26;;;;;;;7.57;5.95;;;13.20;62.70;;;;;;5091375;28;20522;-74
2022/04/25 10:47:04;;;;;;;8.32;6.15;;;13.20;62.50;;;;;;5084992;28;20055;-77
2022/04/25 10:49:31;;;;;;;9.00;6.25;;;13.20;62.70;;;;;;5100308;28;20517;-75
2022/04/25 10:51:57;;;;;;;7.95;6.55;;;13.20;62.60;;;;;;5093887;28;20036;-77
2022/04/25 10:54:26;;;;;;;8.95;6.80;;;13.20;62.60;;;;;;5100912;28;20116;-77
2022/04/25 10:57:16;;;;;;;8.63;6.80;;;13.20;62.60;;;;;;5067238;28;20024;-78
2022/04/25 10:59:42;;;;;;;8.95;6.95;;;13.30;62.80;;;;;;5090644;28;20063;-77
2022/04/25 11:02:28;;;;;;;8.00;6.45;;;13.30;62.60;;;;;;5084856;28;20480;-77
2022/04/25 11:05:12;;;;;;;9.32;6.90;;;13.30;62.70;;;;;;5091939;28;20110;-77
2022/04/25 11:07:39;;;;;;;8.57;6.60;;;13.30;62.70;;;;;;5077283;28;20031;-77
2022/04/25 11:10:05;;;;;;;8.75;6.88;;;13.30;62.60;;;;;;5059192;28;20032;-77
2022/04/25 11:12:57;;;;;;;8.50;6.63;;;13.30;62.60;;;;;;5071941;28;20135;-77
2022/04/25 11:15:42;;;;;;;7.80;6.13;;;13.30;62.70;;;;;;5083929;28;20219;-77
2022/04/25 11:18:35;;;;;;;9.55;6.28;;;13.30;62.70;;;;;;5103861;28;20032;-76
2022/04/25 11:21:16;;;;;;;7.43;6.22;;;13.40;62.70;;;;;;5096534;28;20028;-76
2022/04/25 11:23:44;;;;;;;7.70;5.63;;;13.30;62.60;;;;;;5084430;28;20035;-76
2022/04/25 11:26:36;;;;;;;7.95;6.00;;;13.30;62.60;;;;;;5096559;28;20089;-76
2022/04/25 11:29:10;;;;;;;7.47;5.82;;;13.40;62.60;;;;;;5090467;28;20028;-77
2022/04/25 11:31:38;;;;;;;7.53;5.78;;;13.40;62.60;;;;;;5083053;28;20028;-77
2022/04/25 11:34:11;;;;;;;7.93;6.43;;;13.40;62.60;;;;;;5100049;28;20178;-77
2022/04/25 11:36:43;;;;;;;7.60;5.88;;;13.40;62.60;;;;;;5096007;28;20032;-76
2022/04/25 11:41:58;;;;;;;8.68;5.72;;;13.40;62.60;;;;;;5086505;28;20040;-76
2022/04/25 11:44:23;;;;;;;7.70;6.05;;;13.50;62.60;;;;;;5081711;28;20479;-77
2022/04/25 11:46:51;;;;;;;7.68;6.20;;;13.50;62.60;;;;;;5093992;28;20025;-77
2022/04/25 11:49:32;;;;;;;9.40;6.60;;;13.50;62.60;;;;;;5085563;28;20028;-77
2022/04/25 11:52:00;;;;;;;8.75;6.10;;;13.50;62.70;;;;;;5101792;28;20023;-76
2022/04/25 11:54:30;;;;;;;8.05;6.20;;;13.50;62.60;;;;;;5078787;28;20035;-75
2022/04/25 11:56:59;;;;;;;8.65;6.35;;;13.50;62.60;;;;;;5097734;28;20032;-76
2022/04/25 11:59:25;;;;;;;7.47;5.97;;;13.50;62.80;;;;;;5098156;28;20128;-77
2022/04/25 12:01:52;;;;;;;7.50;6.13;;;13.50;62.60;;;;;;5078548;28;20111;-76
2022/04/25 12:04:27;;;;;;;7.40;5.95;;;13.60;62.60;;;;;;5080875;28;20024;-76
2022/04/25 12:06:54;;;;;;;7.70;5.88;;;13.60;62.60;;;;;;5098886;28;20031;-75
2022/04/25 12:15:38;;;;;;;7.20;5.47;;;13.60;62.50;;;;;;5094427;28;20472;-76
2022/04/25 12:18:21;;;;;;;7.25;5.70;;;13.60;62.50;;;;;;5083309;28;20028;-76
2022/04/25 12:21:08;;;;;;;7.18;5.22;;;13.60;62.60;;;;;;5084016;28;20050;-77
2022/04/25 12:23:35;;;;;;;7.20;5.53;;;13.60;62.60;;;;;;5081381;28;20032;-77
2022/04/25 12:26:03;;;;;;;7.70;6.03;;;13.60;62.50;;;;;;5099936;28;20020;-76
2022/04/25 12:28:31;;;;;;;7.80;6.10;;;13.70;62.60;;;;;;5097004;28;20060;-77
2022/04/25 12:31:10;;;;;;;7.00;5.38;;;13.70;62.60;;;;;;5083623;28;20032;-76
2022/04/25 12:33:37;;;;;;;7.32;5.53;;;13.70;62.70;;;;;;5079172;28;20044;-77
2022/04/25 12:36:12;;;;;;;7.28;5.68;;;13.70;62.60;;;;;;5093021;28;20020;-76
2022/04/25 12:38:43;;;;;;;6.72;5.35;;;13.80;62.70;;;;;;5098150;28;20031;-77
2022/04/25 12:41:19;;;;;;;7.25;5.50;;;13.80;62.70;;;;;;5092139;28;20035;-77
2022/04/25 12:43:46;;;;;;;7.70;5.53;;;13.80;62.60;;;;;;5083228;28;20043;-77
2022/04/25 12:46:15;;;;;;;8.23;6.00;;;13.80;62.70;;;;;;5087003;28;20039;-78
2022/04/25 12:49:07;;;;;;;7.90;5.97;;;13.80;62.60;;;;;;5093036;28;20073;-76
2022/04/25 12:51:42;;;;;;;7.28;5.88;;;13.80;62.80;;;;;;5102157;28;20468;-76
2022/04/25 12:54:30;;;;;;;7.43;6.05;;;13.90;62.70;;;;;;5078268;28;20400;-77
2022/04/25 12:57:13;;;;;;;7.85;5.97;;;13.90;62.80;;;;;;5104359;28;20056;-75
2022/04/25 12:59:40;;;;;;;7.47;5.72;;;13.90;62.80;;;;;;5094677;28;20047;-76
2022/04/25 13:02:09;;;;;;;7.13;5.55;;;13.90;62.70;;;;;;5073387;28;20531;-76
2022/04/25 13:04:53;;;;;;;7.28;5.70;;;13.90;62.70;;;;;;5100603;28;20418;-76
2022/04/25 13:07:37;;;;;;;7.20;5.30;;;13.90;62.80;;;;;;5086718;28;20035;-76
2022/04/25 13:10:05;;;;;;;7.28;5.55;;;14.00;62.80;;;;;;5094195;28;20028;-76
2022/04/25 13:12:39;;;;;;;8.50;5.82;;;14.00;62.80;;;;;;5072398;28;20024;-76
2022/04/25 13:15:13;;;;;;;6.55;5.30;;;14.00;62.80;;;;;;5091123;28;20059;-76
2022/04/25 13:17:40;;;;;;;8.52;6.03;;;14.00;62.80;;;;;;5089644;28;20024;-75
2022/04/25 13:20:11;;;;;;;9.45;5.78;;;14.00;62.80;;;;;;5045445;28;20024;-77
2022/04/25 13:22:37;;;;;;;7.45;5.30;;;14.00;62.80;;;;;;5105341;28;20560;-76
2022/04/25 13:25:04;;;;;;;7.82;5.22;;;14.10;62.80;;;;;;5077760;28;20032;-76
2022/04/25 13:27:31;;;;;;;7.57;5.45;;;14.00;62.70;;;;;;5082568;28;20032;-76
2022/04/25 13:29:56;;;;;;;7.65;5.53;;;14.10;62.70;;;;;;5093764;28;20029;-77